Portada
METAR-TAF:

METAR-TAF

Aeropuertos :

Aeropuerto de Comiso

Comiso, Italia

latitud: 36-59-30N, longitud: 14-36-25E, altitud: 190 m

Observación

El informe se hizo hace 33 minutos, a las 01:50 UTC
Viento 3 kt del este-sureste, variando entre este-noreste y sur-sureste
Temperatura 8°C
Humedad 93%
Presión 1013 hPa
Visibilidad 10 km o más

METAR: LICB 270150Z AUTO 11003KT 070V150 9999 NCD 08/07 Q1013

Hora: 03:23 (02:23 UTC)

Pronóstico

El informe se hizo hace 3 horas y 23 minutos, a las 23:00 UTC
Pronóstico válido del 27 a las 00 UTC al 27 a las 09 UTC
Viento 8 kt del oeste
Visibilidad 10 km o más
Nubes dispersas a una altura de 2000 ft

TAF: LICB 262300Z 2700/2709 27008KT 9999 SCT020

Observaciones y pronósticos meteorológicos de más de 4000 aeropuertos (mensajes METAR y TAF).

Los puntos amarillos y rojos representan las estaciones disponibles.

Ponga el ratón en el punto deseado para ver el nombre de la estación.

Haga clic para ver las observaciones y los pronósticos meteorológicos.

Para cambiar el mapa : haga clic en los botones verdes con una cruz de color negro para hacer un zoom, en el botón verde con un guión para alejar o en las flechas verdes para mapas adyacentes.


METAR-TAF: